Time;durP1;ratioP1;P1;durP2;ratioP2;P2;SDS_P1;SDS_P2;PMS_P1;PMS_P2;Temp;Humidity;BMP_temperature;BMP_pressure;BME280_temperature;BME280_humidity;BME280_pressure;Samples;Min_cycle;Max_cycle;Signal;HPM_P1;HPM_P2
2021/04/23 00:00:01;;;;;;;11.18;8.98;;;12.10;99.90;;;;;;5015425;28;20088;-74
2021/04/23 00:02:26;;;;;;;12.10;8.90;;;12.00;99.90;;;;;;5032643;28;20032;-76
2021/04/23 00:04:52;;;;;;;16.27;9.85;;;12.00;99.90;;;;;;5033577;28;20060;-77
2021/04/23 00:07:18;;;;;;;12.23;9.02;;;11.90;99.90;;;;;;5031582;28;20035;-77
2021/04/23 00:09:44;;;;;;;12.38;9.35;;;12.00;99.90;;;;;;5033086;28;20096;-75
2021/04/23 00:12:15;;;;;;;13.80;9.55;;;12.20;99.90;;;;;;5033127;28;20025;-74
2021/04/23 00:14:51;;;;;;;11.82;9.30;;;12.30;99.90;;;;;;5033068;28;20072;-76
2021/04/23 00:17:19;;;;;;;11.65;9.27;;;12.40;99.90;;;;;;5032910;28;20178;-76
2021/04/23 00:19:45;;;;;;;13.50;9.13;;;12.40;99.90;;;;;;5032886;28;20477;-76
2021/04/23 00:22:12;;;;;;;11.60;9.63;;;12.40;99.90;;;;;;5033278;28;20021;-75
2021/04/23 00:24:41;;;;;;;11.25;8.95;;;12.50;99.90;;;;;;5014715;28;20039;-77
2021/04/23 00:27:07;;;;;;;13.68;9.43;;;12.50;99.90;;;;;;5032783;28;20030;-75
2021/04/23 00:29:36;;;;;;;14.30;10.05;;;12.50;99.90;;;;;;5032219;28;20426;-76
2021/04/23 00:34:48;;;;;;;13.52;9.43;;;12.20;99.90;;;;;;5032356;28;20498;-73
2021/04/23 00:37:14;;;;;;;12.15;9.68;;;12.10;99.90;;;;;;5032655;28;20033;-75
2021/04/23 00:39:40;;;;;;;12.77;9.70;;;12.00;99.90;;;;;;5031818;28;20057;-75
2021/04/23 00:42:07;;;;;;;11.63;9.15;;;11.60;99.90;;;;;;5015105;28;20180;-75
2021/04/23 00:44:33;;;;;;;12.95;9.20;;;11.40;99.90;;;;;;5032028;28;20362;-75
2021/04/23 00:47:01;;;;;;;14.73;9.85;;;11.60;99.90;;;;;;5033095;28;20037;-75
2021/04/23 00:49:27;;;;;;;13.18;10.18;;;11.70;99.90;;;;;;5031809;28;20030;-76
2021/04/23 00:52:01;;;;;;;14.98;9.55;;;12.00;99.90;;;;;;5008098;28;20025;-77
2021/04/23 00:54:28;;;;;;;12.70;9.35;;;12.00;99.90;;;;;;5011733;28;20024;-77
2021/04/23 00:56:55;;;;;;;12.90;9.45;;;12.20;99.90;;;;;;5012669;28;20025;-75
2021/04/23 00:59:21;;;;;;;14.75;9.25;;;12.20;99.90;;;;;;5011670;28;20371;-77
2021/04/23 01:02:10;;;;;;;14.70;9.85;;;11.90;99.90;;;;;;5012823;28;20025;-76
2021/04/23 01:04:36;;;;;;;11.85;9.18;;;11.90;99.90;;;;;;5011849;28;20061;-76
2021/04/23 01:07:03;;;;;;;12.48;9.52;;;12.10;99.90;;;;;;5012194;28;20419;-74
2021/04/23 01:09:30;;;;;;;12.15;9.02;;;11.80;99.90;;;;;;5011797;28;20025;-75
2021/04/23 01:11:58;;;;;;;13.57;9.80;;;11.90;99.90;;;;;;5012438;28;20482;-75
2021/04/23 01:14:25;;;;;;;11.93;9.63;;;12.00;99.90;;;;;;5011418;28;20018;-77
2021/04/23 01:16:51;;;;;;;12.15;9.05;;;12.10;99.90;;;;;;5012372;28;20029;-75
2021/04/23 01:19:20;;;;;;;13.55;9.82;;;11.50;99.90;;;;;;5011305;28;20042;-75
2021/04/23 01:21:47;;;;;;;11.60;9.48;;;11.40;99.90;;;;;;5012145;28;20026;-75
2021/04/23 01:24:13;;;;;;;12.55;8.98;;;11.20;99.90;;;;;;5011396;28;20030;-75
2021/04/23 01:26:42;;;;;;;14.63;9.43;;;11.00;99.90;;;;;;5012127;28;20049;-75
2021/04/23 01:29:11;;;;;;;11.35;9.55;;;11.10;99.90;;;;;;5011323;28;20066;-75
2021/04/23 01:31:40;;;;;;;14.43;9.15;;;11.20;99.90;;;;;;4994666;28;20546;-75
2021/04/23 01:34:13;;;;;;;13.70;9.98;;;11.40;99.90;;;;;;5011473;28;20536;-75
2021/04/23 01:36:40;;;;;;;12.10;9.50;;;11.70;99.90;;;;;;5011914;28;20378;-75
2021/04/23 01:39:09;;;;;;;11.63;9.73;;;11.60;99.90;;;;;;5011022;28;20045;-75
2021/04/23 01:41:35;;;;;;;14.00;9.90;;;11.30;99.90;;;;;;5012093;28;20017;-76
2021/04/23 01:44:04;;;;;;;15.00;10.20;;;11.20;99.90;;;;;;5011018;28;20025;-74
2021/04/23 01:46:33;;;;;;;13.73;10.43;;;11.30;99.90;;;;;;5012334;28;20022;-76
2021/04/23 01:49:01;;;;;;;13.45;10.45;;;11.50;99.90;;;;;;5011080;28;20044;-75
2021/04/23 01:51:27;;;;;;;15.82;10.60;;;11.70;99.90;;;;;;5013061;28;20037;-76
2021/04/23 01:53:54;;;;;;;14.57;9.40;;;11.80;99.90;;;;;;5030847;28;20036;-78
2021/04/23 01:56:20;;;;;;;13.55;9.73;;;11.80;99.90;;;;;;5031401;28;20029;-75
2021/04/23 01:58:46;;;;;;;13.45;9.90;;;11.40;99.90;;;;;;5030670;28;20029;-75
2021/04/23 02:01:11;;;;;;;14.75;10.63;;;11.30;99.90;;;;;;5031820;28;20028;-75
2021/04/23 02:03:38;;;;;;;15.70;10.75;;;11.20;99.90;;;;;;5031314;28;20037;-74
2021/04/23 02:06:04;;;;;;;15.05;11.02;;;11.20;99.90;;;;;;5030416;28;20358;-76
2021/04/23 02:08:30;;;;;;;14.05;10.85;;;11.10;99.90;;;;;;5031318;28;20433;-76
2021/04/23 02:11:17;;;;;;;16.08;11.23;;;11.30;99.90;;;;;;5030557;28;20026;-75
2021/04/23 02:13:46;;;;;;;14.63;10.95;;;11.60;99.90;;;;;;5031414;28;20040;-75
2021/04/23 02:16:14;;;;;;;15.68;10.57;;;11.80;99.90;;;;;;5030811;28;20033;-73
2021/04/23 02:18:41;;;;;;;17.45;11.15;;;11.90;99.90;;;;;;5030800;28;20041;-75
2021/04/23 02:21:08;;;;;;;14.73;11.07;;;12.00;99.90;;;;;;5030669;28;20041;-75
2021/04/23 02:23:35;;;;;;;16.33;10.77;;;12.10;99.90;;;;;;5031278;28;20054;-75
2021/04/23 02:26:00;;;;;;;16.27;10.85;;;12.10;99.90;;;;;;5030440;28;20380;-75
2021/04/23 02:28:26;;;;;;;15.27;11.70;;;12.20;99.90;;;;;;5031277;28;20022;-75
2021/04/23 02:31:04;;;;;;;14.63;11.18;;;12.10;99.90;;;;;;5032379;28;20497;-74
2021/04/23 02:33:30;;;;;;;14.77;11.55;;;12.10;99.90;;;;;;5034886;28;20026;-76
2021/04/23 02:35:58;;;;;;;17.73;11.38;;;12.10;99.90;;;;;;5034623;28;20057;-77
2021/04/23 02:38:24;;;;;;;15.43;11.02;;;12.10;99.90;;;;;;5034872;28;20128;-76
2021/04/23 02:40:51;;;;;;;15.88;11.32;;;12.00;99.90;;;;;;5034101;28;20422;-75
2021/04/23 02:43:21;;;;;;;15.02;11.18;;;12.00;99.90;;;;;;5035066;28;20025;-76
2021/04/23 02:45:49;;;;;;;16.00;11.75;;;12.00;99.90;;;;;;5034308;28;20552;-75
2021/04/23 02:48:15;;;;;;;16.02;11.50;;;12.10;99.90;;;;;;5034601;28;20033;-75
2021/04/23 02:50:49;;;;;;;20.35;11.98;;;12.00;99.90;;;;;;5034331;28;20033;-75
2021/04/23 02:53:16;;;;;;;16.42;11.98;;;12.10;99.90;;;;;;5020155;28;20025;-76
2021/04/23 02:55:42;;;;;;;16.35;12.38;;;11.90;99.90;;;;;;5014128;28;20028;-77
2021/04/23 02:58:17;;;;;;;15.63;12.18;;;11.90;99.90;;;;;;5014897;28;20053;-76
2021/04/23 03:00:47;;;;;;;17.10;12.90;;;11.70;99.90;;;;;;5014170;28;20030;-74
2021/04/23 03:03:13;;;;;;;18.00;13.00;;;11.70;99.90;;;;;;5014776;28;20509;-76
2021/04/23 03:05:41;;;;;;;19.05;12.95;;;11.80;99.90;;;;;;5014220;28;20105;-75
2021/04/23 03:08:08;;;;;;;16.88;13.07;;;11.90;99.90;;;;;;5014613;28;20029;-76
2021/04/23 03:10:40;;;;;;;15.82;12.50;;;11.90;99.90;;;;;;5014323;28;20030;-76
2021/04/23 03:13:14;;;;;;;17.88;13.00;;;11.80;99.90;;;;;;5014947;28;20029;-75
2021/04/23 03:15:40;;;;;;;18.63;13.55;;;11.90;99.90;;;;;;5013965;28;20038;-76
2021/04/23 03:18:09;;;;;;;17.13;13.43;;;11.90;99.90;;;;;;5014466;28;20490;-76
2021/04/23 03:20:35;;;;;;;18.65;13.70;;;11.90;99.90;;;;;;5014018;28;20049;-76
2021/04/23 03:23:01;;;;;;;17.67;14.35;;;11.90;99.90;;;;;;5014469;28;20018;-74
2021/04/23 03:25:30;;;;;;;19.60;14.27;;;11.90;99.90;;;;;;5013780;28;20493;-77
2021/04/23 03:27:56;;;;;;;18.80;12.88;;;11.90;99.90;;;;;;5014469;28;20046;-75
2021/04/23 03:30:30;;;;;;;14.48;10.18;;;11.80;99.90;;;;;;5013599;28;20066;-76
2021/04/23 03:32:56;;;;;;;15.65;12.27;;;11.80;99.90;;;;;;5014291;28;20022;-77
2021/04/23 03:35:23;;;;;;;14.65;10.40;;;11.80;99.90;;;;;;5013657;28;20029;-76
2021/04/23 03:37:49;;;;;;;13.43;10.05;;;11.80;99.90;;;;;;5013781;28;20073;-75
2021/04/23 03:40:19;;;;;;;11.85;9.43;;;11.70;99.90;;;;;;5013249;28;20104;-76
2021/04/23 03:42:45;;;;;;;13.13;9.82;;;11.80;99.90;;;;;;5012739;28;20355;-76
2021/04/23 03:45:13;;;;;;;13.40;10.40;;;11.80;99.90;;;;;;5013194;28;20088;-76
2021/04/23 03:47:39;;;;;;;13.55;9.88;;;11.80;99.90;;;;;;5013854;28;20033;-76
2021/04/23 03:50:07;;;;;;;14.55;10.60;;;11.80;99.90;;;;;;5013706;28;20022;-75
2021/04/23 03:52:34;;;;;;;15.15;10.95;;;11.90;99.90;;;;;;5021077;28;20025;-76
2021/04/23 03:55:02;;;;;;;12.32;10.02;;;11.60;99.90;;;;;;5033846;28;20024;-75
2021/04/23 03:57:28;;;;;;;12.85;10.20;;;11.70;99.90;;;;;;5033093;28;20029;-76
2021/04/23 03:59:54;;;;;;;13.63;10.18;;;11.80;99.90;;;;;;5033086;28;20037;-76
2021/04/23 04:02:20;;;;;;;13.27;10.50;;;11.90;99.90;;;;;;5032933;28;20026;-76
2021/04/23 04:04:45;;;;;;;13.43;9.95;;;11.80;99.90;;;;;;5033596;28;20084;-75
2021/04/23 04:07:11;;;;;;;12.70;10.27;;;11.80;99.90;;;;;;5032662;28;20473;-75
2021/04/23 04:09:37;;;;;;;12.63;10.07;;;11.90;99.90;;;;;;5033366;28;20033;-75
2021/04/23 04:12:03;;;;;;;12.68;9.50;;;11.90;99.90;;;;;;5032767;28;20029;-74
2021/04/23 04:14:29;;;;;;;12.55;10.18;;;12.00;99.90;;;;;;5015328;28;20546;-76
2021/04/23 04:16:55;;;;;;;12.52;10.07;;;12.00;99.90;;;;;;5032892;28;20025;-76
2021/04/23 04:19:20;;;;;;;16.70;11.85;;;12.10;99.90;;;;;;5032780;28;20041;-75
2021/04/23 04:21:46;;;;;;;14.90;11.43;;;12.00;99.90;;;;;;5032292;28;20064;-76
2021/04/23 04:24:12;;;;;;;15.30;10.98;;;11.90;99.90;;;;;;5032965;28;20529;-77
2021/04/23 04:26:38;;;;;;;16.13;10.27;;;12.00;99.90;;;;;;5032061;28;20044;-75
2021/04/23 04:29:04;;;;;;;16.63;11.07;;;12.00;99.90;;;;;;5032618;28;20435;-76
2021/04/23 04:31:31;;;;;;;17.17;11.52;;;12.00;99.90;;;;;;5032316;28;20041;-75
2021/04/23 04:33:57;;;;;;;17.27;12.20;;;12.00;99.90;;;;;;5032829;28;20029;-75
2021/04/23 04:36:24;;;;;;;16.05;11.90;;;12.00;99.90;;;;;;5032413;28;20033;-75
2021/04/23 04:38:49;;;;;;;17.48;12.13;;;12.10;99.90;;;;;;5032484;28;20045;-75
2021/04/23 04:41:16;;;;;;;14.75;10.30;;;12.10;99.90;;;;;;5032062;28;20381;-76
2021/04/23 04:43:43;;;;;;;13.57;10.73;;;12.20;99.90;;;;;;5032407;28;20130;-76
2021/04/23 04:46:09;;;;;;;14.32;10.60;;;12.20;99.90;;;;;;5031992;28;20029;-75
2021/04/23 04:48:35;;;;;;;17.02;10.57;;;12.20;99.90;;;;;;5032502;28;20034;-75
2021/04/23 04:51:03;;;;;;;16.90;10.68;;;12.20;99.90;;;;;;5031949;28;20432;-77
2021/04/23 04:53:30;;;;;;;14.60;10.50;;;12.20;99.90;;;;;;5018218;28;20080;-76
2021/04/23 04:55:59;;;;;;;14.75;10.57;;;12.10;99.90;;;;;;5012009;28;20072;-75
2021/04/23 04:58:28;;;;;;;14.63;10.52;;;12.10;99.90;;;;;;5012652;28;20030;-76
2021/04/23 05:00:54;;;;;;;15.48;10.40;;;12.10;99.90;;;;;;5012714;28;20034;-75
2021/04/23 05:03:21;;;;;;;14.90;11.40;;;12.20;99.90;;;;;;5012113;28;20041;-76
2021/04/23 05:05:47;;;;;;;15.55;11.02;;;12.10;99.90;;;;;;5012345;28;20080;-76
2021/04/23 05:08:13;;;;;;;16.75;11.65;;;11.80;99.90;;;;;;5011533;28;20484;-77
2021/04/23 05:10:39;;;;;;;15.27;12.13;;;12.00;99.90;;;;;;5012880;28;20113;-73
2021/04/23 05:13:04;;;;;;;18.17;12.95;;;12.00;99.90;;;;;;5011652;28;20063;-76
2021/04/23 05:15:31;;;;;;;33.92;21.23;;;12.00;99.90;;;;;;5012509;28;20057;-77
2021/04/23 05:17:56;;;;;;;29.50;17.83;;;12.40;99.90;;;;;;5011677;28;20026;-78
2021/04/23 05:20:24;;;;;;;52.15;33.13;;;12.50;99.90;;;;;;5012119;28;20436;-77
2021/04/23 05:22:50;;;;;;;39.10;25.10;;;12.50;99.90;;;;;;5011609;28;20100;-76
2021/04/23 05:25:24;;;;;;;55.15;34.33;;;12.60;99.90;;;;;;5012564;28;20444;-75
2021/04/23 05:27:50;;;;;;;47.33;31.70;;;12.80;99.90;;;;;;5011364;28;20100;-77
2021/04/23 05:30:21;;;;;;;60.75;39.10;;;12.70;99.90;;;;;;5011890;28;20030;-76
2021/04/23 05:32:47;;;;;;;;;;;13.00;99.90;;;;;;5013237;28;20053;-76
2021/04/23 05:35:15;;;;;;;24.83;18.10;;;12.90;99.90;;;;;;5031512;28;19905;-77
2021/04/23 05:37:41;;;;;;;20.15;14.52;;;12.80;99.90;;;;;;5030480;28;20121;-76
2021/04/23 05:40:10;;;;;;;16.27;12.38;;;12.70;99.90;;;;;;5023069;28;20059;-77
2021/04/23 05:42:36;;;;;;;15.13;11.52;;;12.70;99.90;;;;;;5010494;28;20395;-77
2021/04/23 05:45:04;;;;;;;16.95;11.75;;;12.60;99.90;;;;;;5011198;28;20030;-76
2021/04/23 05:47:30;;;;;;;16.48;12.25;;;12.20;99.90;;;;;;5010392;28;20413;-74
2021/04/23 05:49:56;;;;;;;15.52;11.57;;;12.30;99.90;;;;;;5011331;28;20029;-75
2021/04/23 05:52:21;;;;;;;16.13;11.35;;;12.40;99.90;;;;;;5010885;28;20074;-76
2021/04/23 05:54:47;;;;;;;20.73;13.60;;;12.40;99.90;;;;;;5031277;28;20109;-77
2021/04/23 05:57:13;;;;;;;21.98;14.48;;;12.50;99.90;;;;;;5030421;28;20658;-76
2021/04/23 05:59:39;;;;;;;31.80;21.20;;;12.60;99.90;;;;;;5013260;28;20085;-79
2021/04/23 06:02:04;;;;;;;77.60;47.60;;;12.80;99.90;;;;;;4998795;28;20062;-75
2021/04/23 06:04:31;;;;;;;46.00;30.65;;;12.80;99.90;;;;;;5007244;28;20041;-75
2021/04/23 06:06:56;;;;;;;23.85;17.30;;;12.70;99.90;;;;;;5010843;28;20025;-77
2021/04/23 06:09:22;;;;;;;22.75;15.05;;;12.60;99.90;;;;;;5010161;28;20022;-76
2021/04/23 06:11:48;;;;;;;24.85;16.17;;;12.50;99.90;;;;;;5011223;28;20125;-79
2021/04/23 06:14:14;;;;;;;21.25;15.40;;;12.50;99.90;;;;;;4992488;28;20033;-75
2021/04/23 06:16:40;;;;;;;21.83;14.68;;;12.40;99.90;;;;;;5010931;28;20030;-77
2021/04/23 06:19:06;;;;;;;21.15;14.27;;;12.40;99.90;;;;;;5008978;28;20038;-77
2021/04/23 06:21:33;;;;;;;17.65;13.88;;;12.30;99.90;;;;;;5009555;28;20022;-77
2021/04/23 06:23:59;;;;;;;20.55;14.88;;;12.30;99.90;;;;;;5008468;28;20030;-77
2021/04/23 06:26:25;;;;;;;19.20;15.07;;;12.30;99.90;;;;;;5009486;28;20026;-77
2021/04/23 06:28:51;;;;;;;22.67;15.27;;;12.20;99.90;;;;;;5008529;28;20105;-77
2021/04/23 06:31:17;;;;;;;22.73;17.65;;;12.30;99.90;;;;;;5010096;28;20018;-77
2021/04/23 06:33:47;;;;;;;22.70;16.65;;;12.00;99.90;;;;;;5009758;28;20030;-77
2021/04/23 06:36:13;;;;;;;24.80;17.98;;;12.00;99.90;;;;;;4993804;28;20096;-75
2021/04/23 06:38:40;;;;;;;24.35;17.00;;;12.10;99.90;;;;;;5010025;28;20049;-76
2021/04/23 06:41:06;;;;;;;25.58;17.60;;;12.20;99.90;;;;;;5010974;28;20037;-76
2021/04/23 06:43:32;;;;;;;21.30;15.55;;;12.20;99.90;;;;;;4992900;28;20018;-77
2021/04/23 06:45:57;;;;;;;20.90;16.42;;;12.30;99.90;;;;;;5010604;28;20026;-76
2021/04/23 06:48:23;;;;;;;19.13;15.20;;;12.20;99.90;;;;;;5010398;28;20034;-75
2021/04/23 06:50:50;;;;;;;25.05;17.17;;;12.20;99.90;;;;;;5010971;28;20034;-79
2021/04/23 06:53:17;;;;;;;23.35;16.58;;;12.00;99.90;;;;;;5018789;28;20489;-76
2021/04/23 06:55:43;;;;;;;21.45;16.15;;;12.20;99.90;;;;;;5013298;28;20088;-76
2021/04/23 06:58:10;;;;;;;21.85;16.90;;;12.30;99.90;;;;;;5009956;28;20029;-78
2021/04/23 07:00:37;;;;;;;22.33;16.20;;;12.40;99.90;;;;;;5010463;28;20017;-76
2021/04/23 07:03:06;;;;;;;24.40;16.98;;;12.30;99.90;;;;;;5009914;28;20034;-76
2021/04/23 07:05:32;;;;;;;20.63;14.77;;;12.10;99.90;;;;;;5011126;28;20057;-78
2021/04/23 07:07:59;;;;;;;18.92;13.32;;;12.20;99.90;;;;;;5009888;28;20215;-78
2021/04/23 07:10:27;;;;;;;14.60;11.90;;;12.20;99.90;;;;;;5010258;28;20022;-78
2021/04/23 07:12:53;;;;;;;13.63;11.43;;;12.20;99.90;;;;;;5010959;28;20018;-76
2021/04/23 07:15:23;;;;;;;15.95;11.68;;;12.20;99.90;;;;;;5009684;28;20037;-77
2021/04/23 07:17:49;;;;;;;14.95;10.85;;;12.30;99.90;;;;;;5013634;28;20065;-78
2021/04/23 07:20:16;;;;;;;14.07;11.15;;;12.20;99.90;;;;;;5013478;28;20458;-77
2021/04/23 07:22:42;;;;;;;14.35;10.95;;;12.20;99.90;;;;;;5014198;28;20022;-77
2021/04/23 07:25:10;;;;;;;14.85;10.98;;;12.10;99.90;;;;;;5013148;28;20052;-77
2021/04/23 07:27:36;;;;;;;14.38;10.82;;;12.10;99.90;;;;;;5013809;28;20025;-78
2021/04/23 07:30:07;;;;;;;15.07;11.68;;;12.00;99.90;;;;;;5013095;28;20398;-77
2021/04/23 07:32:33;;;;;;;12.68;9.27;;;12.20;99.90;;;;;;5013461;28;20394;-76
2021/04/23 07:34:59;;;;;;;13.77;10.10;;;12.20;99.90;;;;;;5012832;28;20477;-77
2021/04/23 07:37:25;;;;;;;12.20;9.45;;;12.20;99.90;;;;;;5013406;28;20037;-79
2021/04/23 07:39:50;;;;;;;12.38;9.55;;;12.20;99.90;;;;;;5012033;28;20029;-77
2021/04/23 07:42:16;;;;;;;10.60;8.50;;;12.20;99.90;;;;;;5014004;28;20581;-77
2021/04/23 07:44:42;;;;;;;12.95;9.63;;;12.20;99.90;;;;;;5012705;28;20502;-78
2021/04/23 07:47:08;;;;;;;12.38;10.23;;;12.40;99.90;;;;;;5014034;28;20206;-78
2021/04/23 07:49:35;;;;;;;13.90;10.20;;;12.50;99.90;;;;;;5013001;28;20030;-77
2021/04/23 07:52:01;;;;;;;13.77;10.25;;;12.50;99.90;;;;;;5013771;28;20014;-76
2021/04/23 07:54:27;;;;;;;11.40;9.05;;;12.60;99.90;;;;;;5022873;28;20049;-77
2021/04/23 07:56:53;;;;;;;12.85;9.57;;;12.60;99.90;;;;;;5014035;28;20429;-76
2021/04/23 07:59:19;;;;;;;14.10;9.38;;;12.50;99.90;;;;;;5012271;28;20478;-78
2021/04/23 08:01:45;;;;;;;11.20;8.70;;;12.50;99.90;;;;;;4996045;28;20058;-77
2021/04/23 08:04:10;;;;;;;11.02;8.88;;;12.50;99.90;;;;;;5012556;28;20549;-78
2021/04/23 08:06:36;;;;;;;11.95;9.73;;;12.40;99.90;;;;;;5012779;28;20026;-77
2021/04/23 08:09:03;;;;;;;13.02;9.43;;;12.50;99.90;;;;;;5012406;28;20057;-78
2021/04/23 08:11:29;;;;;;;11.23;8.63;;;12.50;99.90;;;;;;5013199;28;20030;-79
2021/04/23 08:13:55;;;;;;;12.73;8.77;;;12.50;99.90;;;;;;5012681;28;20026;-78
2021/04/23 08:16:21;;;;;;;13.27;10.07;;;12.60;99.90;;;;;;5012972;28;20469;-78
2021/04/23 08:18:51;;;;;;;13.48;8.82;;;12.60;99.90;;;;;;5012678;28;20041;-77
2021/04/23 08:21:18;;;;;;;15.05;10.00;;;12.30;99.90;;;;;;4994789;28;20389;-78
2021/04/23 08:23:46;;;;;;;11.65;9.15;;;12.20;99.90;;;;;;5012994;28;20057;-79
2021/04/23 08:26:12;;;;;;;12.65;8.35;;;12.30;99.90;;;;;;5012300;28;20053;-78
2021/04/23 08:28:38;;;;;;;10.60;8.30;;;12.40;99.90;;;;;;5012225;28;20449;-77
2021/04/23 08:31:04;;;;;;;13.57;9.40;;;12.60;99.90;;;;;;5011909;28;20514;-76
2021/04/23 08:33:30;;;;;;;14.60;10.07;;;12.80;99.90;;;;;;5012615;28;20026;-77
2021/04/23 08:35:55;;;;;;;13.50;10.05;;;13.10;99.90;;;;;;5012185;28;20040;-77
2021/04/23 08:38:24;;;;;;;12.10;9.02;;;13.50;99.90;;;;;;5012641;28;20088;-78
2021/04/23 08:40:54;;;;;;;11.60;8.90;;;13.70;99.90;;;;;;4994811;28;20033;-79
2021/04/23 08:43:21;;;;;;;12.38;8.65;;;13.70;99.90;;;;;;5012803;28;20068;-78
2021/04/23 08:45:48;;;;;;;13.13;8.93;;;13.70;99.90;;;;;;5011776;28;20044;-78
2021/04/23 08:48:14;;;;;;;11.68;8.68;;;13.70;99.90;;;;;;5012082;28;20064;-78
2021/04/23 08:50:41;;;;;;;13.00;8.68;;;13.90;99.90;;;;;;5011875;28;20026;-76
2021/04/23 08:53:08;;;;;;;11.43;8.00;;;14.00;99.90;;;;;;5016813;28;20026;-78
2021/04/23 08:55:34;;;;;;;11.73;7.63;;;13.90;99.90;;;;;;5015351;28;20065;-80
2021/04/23 08:58:01;;;;;;;14.00;7.85;;;14.00;99.90;;;;;;5012366;28;20021;-78
2021/04/23 09:00:27;;;;;;;9.60;6.90;;;14.00;99.90;;;;;;5011238;28;20038;-76
2021/04/23 09:02:53;;;;;;;8.88;6.40;;;13.60;99.90;;;;;;5011846;28;20037;-76
2021/04/23 09:05:19;;;;;;;7.38;6.00;;;13.70;99.90;;;;;;5011760;28;20038;-78
2021/04/23 09:08:06;;;;;;;8.40;5.95;;;13.60;99.90;;;;;;5012262;28;20022;-79
2021/04/23 09:10:34;;;;;;;10.55;6.43;;;13.30;99.90;;;;;;5011600;28;20018;-76
2021/04/23 09:13:17;;;;;;;8.35;6.45;;;13.20;99.90;;;;;;5012221;28;20022;-76
2021/04/23 09:15:45;;;;;;;8.07;6.18;;;13.20;99.90;;;;;;5009262;28;20783;-77
2021/04/23 09:18:21;;;;;;;9.40;6.55;;;13.00;99.90;;;;;;5011655;28;20026;-77
2021/04/23 09:20:59;;;;;;;9.63;6.57;;;13.10;99.90;;;;;;5011236;28;20418;-76
2021/04/23 09:23:25;;;;;;;8.25;6.10;;;13.20;99.90;;;;;;5011833;28;20022;-77
2021/04/23 09:25:57;;;;;;;8.95;5.78;;;13.20;99.90;;;;;;5011449;28;20026;-78
2021/04/23 09:28:38;;;;;;;8.45;6.07;;;13.40;99.90;;;;;;5010935;28;20030;-78
2021/04/23 09:31:22;;;;;;;;;;;13.50;99.90;;;;;;5007751;28;20108;-78
2021/04/23 09:33:55;;;;;;;10.77;5.78;;;13.60;99.90;;;;;;5010264;28;19914;-78
2021/04/23 09:36:36;;;;;;;9.18;6.30;;;13.50;99.90;;;;;;5009153;28;20021;-77
2021/04/23 09:39:23;;;;;;;8.52;5.90;;;13.60;99.90;;;;;;5006978;28;20046;-75
2021/04/23 09:42:03;;;;;;;8.88;6.38;;;13.60;99.90;;;;;;5007894;28;20567;-77
2021/04/23 09:44:32;;;;;;;8.73;6.17;;;13.70;99.90;;;;;;5008490;28;20092;-76
2021/04/23 09:47:07;;;;;;;8.35;5.90;;;13.50;99.90;;;;;;5009988;28;20022;-77
2021/04/23 09:49:33;;;;;;;10.70;6.72;;;13.60;99.90;;;;;;5006075;28;20025;-79
2021/04/23 09:52:05;;;;;;;11.20;6.93;;;13.60;99.90;;;;;;5008364;28;20037;-77
2021/04/23 09:54:33;;;;;;;10.43;6.57;;;13.60;99.90;;;;;;5010410;28;20038;-72
2021/04/23 09:56:59;;;;;;;8.93;6.63;;;13.70;99.90;;;;;;5006800;28;20033;-74
2021/04/23 09:59:30;;;;;;;10.60;7.20;;;13.80;99.90;;;;;;5009573;28;20061;-77
2021/04/23 10:02:04;;;;;;;8.90;6.40;;;13.90;99.90;;;;;;5010334;28;20030;-77
2021/04/23 10:04:32;;;;;;;7.13;5.68;;;13.90;99.90;;;;;;5006544;28;20453;-78
2021/04/23 10:07:15;;;;;;;8.18;6.10;;;13.70;99.90;;;;;;5010454;28;20026;-77
2021/04/23 10:10:16;;;;;;;9.48;7.00;;;13.50;99.90;;;;;;5011138;28;20033;-75
2021/04/23 10:12:53;;;;;;;11.60;7.88;;;12.70;99.90;;;;;;4934107;29;20023;-75
2021/04/23 10:15:22;;;;;;;10.18;7.95;;;12.50;99.90;;;;;;5000415;28;20052;-76
2021/04/23 10:17:53;;;;;;;10.35;7.18;;;12.80;99.90;;;;;;5006516;28;20108;-76
2021/04/23 10:20:25;;;;;;;9.95;7.22;;;12.60;99.90;;;;;;5010055;28;20116;-76
2021/04/23 10:22:52;;;;;;;10.60;7.53;;;12.50;99.90;;;;;;5007079;28;20033;-76
2021/04/23 10:25:19;;;;;;;9.60;6.80;;;12.40;99.90;;;;;;5009214;28;20026;-75
2021/04/23 10:27:46;;;;;;;10.23;7.50;;;12.60;99.90;;;;;;5009163;28;20026;-75
2021/04/23 10:30:21;;;;;;;10.30;7.97;;;13.00;99.90;;;;;;5009510;28;20519;-77
2021/04/23 10:32:52;;;;;;;10.35;7.47;;;13.10;99.90;;;;;;5008722;28;20397;-79
2021/04/23 10:35:19;;;;;;;9.23;7.32;;;12.90;99.90;;;;;;5009943;28;20059;-75
2021/04/23 10:37:46;;;;;;;10.68;7.32;;;13.20;99.90;;;;;;5008945;28;20056;-76
2021/04/23 10:40:14;;;;;;;9.38;6.95;;;13.10;99.90;;;;;;4987398;28;20115;-77
2021/04/23 10:42:57;;;;;;;10.63;7.80;;;13.10;99.90;;;;;;5007193;28;20014;-78
2021/04/23 10:45:39;;;;;;;9.98;7.72;;;13.40;99.90;;;;;;5009738;28;20029;-76
2021/04/23 10:48:24;;;;;;;8.63;6.65;;;13.60;99.90;;;;;;5007645;28;20026;-77
2021/04/23 10:50:57;;;;;;;9.32;6.80;;;13.60;99.90;;;;;;5009497;28;20072;-78
2021/04/23 10:53:25;;;;;;;9.50;6.55;;;13.70;99.90;;;;;;5014210;28;20111;-77
2021/04/23 10:55:57;;;;;;;8.02;6.25;;;13.80;99.90;;;;;;5014068;28;20018;-78
2021/04/23 10:58:31;;;;;;;7.68;5.88;;;14.40;99.90;;;;;;5010972;28;20029;-78
2021/04/23 11:01:23;;;;;;;7.13;5.70;;;14.80;99.90;;;;;;5013413;28;20018;-81
2021/04/23 11:04:08;;;;;;;7.65;5.88;;;15.30;99.90;;;;;;5009296;28;20509;-78
2021/04/23 11:06:39;;;;;;;8.27;6.22;;;15.20;99.90;;;;;;5010959;28;20029;-78
2021/04/23 11:09:07;;;;;;;9.60;6.30;;;15.50;99.90;;;;;;4995880;28;20026;-79
2021/04/23 11:11:34;;;;;;;8.57;6.00;;;15.60;99.90;;;;;;5013089;28;20096;-79
2021/04/23 11:14:20;;;;;;;8.93;5.70;;;15.60;99.90;;;;;;5011124;28;20042;-76
2021/04/23 11:16:47;;;;;;;9.30;6.10;;;15.40;99.90;;;;;;5011962;28;20426;-78
2021/04/23 11:19:18;;;;;;;8.85;6.40;;;15.10;99.90;;;;;;5013804;28;20491;-78
2021/04/23 11:21:48;;;;;;;7.75;5.03;;;15.40;99.90;;;;;;5013210;28;20033;-75
2021/04/23 11:24:17;;;;;;;9.60;4.82;;;15.10;99.90;;;;;;5014390;28;20105;-77
2021/04/23 11:26:52;;;;;;;6.93;4.57;;;15.30;99.90;;;;;;5013579;28;20030;-76
2021/04/23 11:29:28;;;;;;;7.03;4.35;;;15.20;99.90;;;;;;4996145;28;20018;-77
2021/04/23 11:32:24;;;;;;;6.75;4.10;;;15.30;99.90;;;;;;5013516;28;20037;-78
2021/04/23 11:34:58;;;;;;;6.20;4.07;;;15.40;99.90;;;;;;5013907;28;20021;-75
2021/04/23 11:37:29;;;;;;;5.95;4.20;;;15.00;99.90;;;;;;5013132;28;20045;-77
2021/04/23 11:39:59;;;;;;;5.90;4.00;;;15.10;99.90;;;;;;5013949;28;20109;-75
2021/04/23 11:42:44;;;;;;;6.50;4.15;;;14.90;99.90;;;;;;4996134;28;20022;-74
2021/04/23 11:45:12;;;;;;;5.50;3.67;;;15.10;99.90;;;;;;5011099;28;20053;-77
2021/04/23 11:47:50;;;;;;;5.20;3.42;;;14.80;99.90;;;;;;5013114;28;20030;-78
2021/04/23 11:50:18;;;;;;;6.88;4.10;;;15.10;99.90;;;;;;5008275;28;20050;-78
2021/04/23 11:52:52;;;;;;;5.05;3.47;;;15.00;99.90;;;;;;5011980;28;20096;-76
2021/04/23 11:55:21;;;;;;;5.25;3.25;;;14.80;99.90;;;;;;4991840;28;20018;-79
2021/04/23 11:57:50;;;;;;;4.63;3.17;;;15.00;99.90;;;;;;5011963;28;20022;-79
2021/04/23 12:00:19;;;;;;;6.00;3.95;;;15.20;99.90;;;;;;4995547;28;20041;-78
2021/04/23 12:02:51;;;;;;;6.97;4.13;;;15.40;99.90;;;;;;5011435;28;20033;-79
2021/04/23 12:05:32;;;;;;;6.00;3.97;;;15.50;99.90;;;;;;5012528;28;20045;-78
2021/04/23 12:08:03;;;;;;;6.50;4.47;;;15.70;99.90;;;;;;5012474;28;20025;-78
2021/04/23 12:10:31;;;;;;;6.13;4.03;;;15.20;99.90;;;;;;5012640;28;20030;-77
2021/04/23 12:12:57;;;;;;;5.68;3.47;;;15.10;99.90;;;;;;5012489;28;20354;-77
2021/04/23 12:15:26;;;;;;;9.15;3.90;;;14.90;99.90;;;;;;5012303;28;20485;-77
2021/04/23 12:17:53;;;;;;;5.20;3.55;;;15.00;99.90;;;;;;4994796;28;20029;-75
2021/04/23 12:20:30;;;;;;;5.45;3.53;;;15.50;99.90;;;;;;5012240;28;20034;-79
2021/04/23 12:22:57;;;;;;;5.97;3.13;;;15.40;99.90;;;;;;5011978;28;20481;-79
2021/04/23 12:25:34;;;;;;;4.35;2.67;;;15.50;99.90;;;;;;5004572;28;20030;-78
2021/04/23 12:28:38;;;;;;;5.43;3.28;;;15.70;99.90;;;;;;5009917;28;20030;-79
2021/04/23 12:31:07;;;;;;;4.82;2.60;;;15.80;99.90;;;;;;5001608;28;20042;-77
2021/04/23 12:33:50;;;;;;;4.15;2.75;;;15.80;99.90;;;;;;5011879;28;20096;-80
2021/04/23 12:36:31;;;;;;;4.93;3.33;;;15.70;99.90;;;;;;5012459;28;20040;-79
2021/04/23 12:39:02;;;;;;;6.60;3.25;;;15.60;99.90;;;;;;5011801;28;20083;-78
2021/04/23 12:41:32;;;;;;;4.82;3.22;;;15.30;99.90;;;;;;5011948;28;20366;-80
2021/04/23 12:44:00;;;;;;;4.73;3.10;;;14.90;99.90;;;;;;5011182;28;20424;-79
2021/04/23 12:46:28;;;;;;;7.03;3.75;;;15.10;99.90;;;;;;5012020;28;20270;-79